Time,TemperatureF,DewpointF,PressureIn,WindDirection,WindDirectionDegrees,WindSpeedMPH,WindSpeedGustMPH,Humidity,HourlyPrecipIn,Conditions,Clouds,dailyrainin,SoftwareType,DateUTC
2014-07-25 00:01:00,58.6,56.9,29.90,NNE,16,3.0,3.0,94,0.00,,,0.00,Wunderground v.1.15,2014-07-25 04:01:00,
2014-07-25 00:02:00,58.6,56.6,29.90,NNE,26,3.0,3.0,93,0.00,,,0.00,Wunderground v.1.15,2014-07-25 04:02:00,
2014-07-25 00:03:00,58.6,56.6,29.90,NE,41,1.0,3.0,93,0.00,,,0.00,Wunderground v.1.15,2014-07-25 04:03:00,
2014-07-25 00:04:00,58.5,56.5,29.90,North,355,2.0,3.0,93,0.00,,,0.00,Wunderground v.1.15,2014-07-25 04:04:00,
2014-07-25 00:09:00,58.3,56.3,29.90,ENE,57,0.0,3.0,93,0.00,,,0.00,Wunderground v.1.15,2014-07-25 04:09:00,
2014-07-25 00:10:00,58.3,56.3,29.90,ENE,57,0.0,2.0,93,0.00,,,0.00,Wunderground v.1.15,2014-07-25 04:10:00,
2014-07-25 00:16:00,58.1,56.1,29.90,NNE,23,1.0,2.0,93,0.00,,,0.00,Wunderground v.1.15,2014-07-25 04:16:00,
2014-07-25 00:22:00,57.9,55.9,29.91,NNE,19,0.0,1.0,93,0.00,,,0.00,Wunderground v.1.15,2014-07-25 04:22:00,
2014-07-25 00:27:00,57.8,56.1,29.91,NNE,20,0.0,1.0,94,0.00,,,0.00,Wunderground v.1.15,2014-07-25 04:27:00,
2014-07-25 00:30:00,57.7,56.0,29.91,NNE,20,0.0,0.0,94,0.00,,,0.00,Wunderground v.1.15,2014-07-25 04:30:00,
2014-07-25 00:35:00,57.6,55.9,29.91,NNE,20,0.0,0.0,94,0.00,,,0.00,Wunderground v.1.15,2014-07-25 04:35:00,
2014-07-25 00:41:00,57.4,55.7,29.91,NNE,20,0.0,0.0,94,0.00,,,0.00,Wunderground v.1.15,2014-07-25 04:41:00,
2014-07-25 00:47:00,57.1,55.1,29.91,NNE,20,0.0,1.0,93,0.00,,,0.00,Wunderground v.1.15,2014-07-25 04:47:00,
2014-07-25 00:52:00,56.9,54.9,29.91,NNE,20,0.0,0.0,93,0.00,,,0.00,Wunderground v.1.15,2014-07-25 04:52:00,
2014-07-25 00:58:00,56.7,54.7,29.91,NNE,20,0.0,0.0,93,0.00,,,0.00,Wunderground v.1.15,2014-07-25 04:58:00,
2014-07-25 01:03:00,56.5,54.5,29.91,NNE,20,0.0,1.0,93,0.00,,,0.00,Wunderground v.1.15,2014-07-25 05:03:00,
2014-07-25 01:09:00,56.3,54.6,29.91,NNE,20,0.0,1.0,94,0.00,,,0.00,Wunderground v.1.15,2014-07-25 05:09:00,
2014-07-25 01:15:00,56.1,54.4,29.91,NNE,20,0.0,0.0,94,0.00,,,0.00,Wunderground v.1.15,2014-07-25 05:15:00,
2014-07-25 01:21:00,55.9,54.2,29.91,NNE,20,0.0,0.0,94,0.00,,,0.00,Wunderground v.1.15,2014-07-25 05:21:00,
2014-07-25 01:26:00,55.8,54.1,29.90,NNE,20,0.0,0.0,94,0.00,,,0.00,Wunderground v.1.15,2014-07-25 05:26:00,
2014-07-25 01:32:00,55.6,53.9,29.90,NNE,20,0.0,0.0,94,0.00,,,0.00,Wunderground v.1.15,2014-07-25 05:32:00,
2014-07-25 01:37:00,55.5,53.8,29.91,NNE,20,0.0,0.0,94,0.00,,,0.00,Wunderground v.1.15,2014-07-25 05:37:00,
2014-07-25 01:43:00,55.4,53.7,29.91,NNE,20,0.0,0.0,94,0.00,,,0.00,Wunderground v.1.15,2014-07-25 05:43:00,
2014-07-25 01:49:00,55.2,53.5,29.91,NNE,20,0.0,0.0,94,0.00,,,0.00,Wunderground v.1.15,2014-07-25 05:49:00,
2014-07-25 01:54:00,55.1,53.7,29.91,NNE,20,0.0,0.0,95,0.00,,,0.00,Wunderground v.1.15,2014-07-25 05:54:00,
2014-07-25 02:00:00,55.0,53.6,29.91,NNE,20,0.0,0.0,95,0.00,,,0.00,Wunderground v.1.15,2014-07-25 06:00:00,
2014-07-25 02:05:00,55.0,53.6,29.91,NNE,20,0.0,0.0,95,0.00,,,0.00,Wunderground v.1.15,2014-07-25 06:05:00,
2014-07-25 02:10:00,55.0,53.6,29.91,NNE,20,0.0,0.0,95,0.00,,,0.00,Wunderground v.1.15,2014-07-25 06:10:00,
2014-07-25 02:15:00,55.0,53.6,29.91,NNE,20,0.0,0.0,95,0.00,,,0.00,Wunderground v.1.15,2014-07-25 06:15:00,
2014-07-25 02:20:00,55.0,53.6,29.91,NNE,20,0.0,0.0,95,0.00,,,0.00,Wunderground v.1.15,2014-07-25 06:20:00,
2014-07-25 02:25:00,54.9,53.5,29.91,NNE,20,0.0,0.0,95,0.00,,,0.00,Wunderground v.1.15,2014-07-25 06:25:00,
2014-07-25 02:30:00,54.9,53.8,29.91,NNE,20,0.0,0.0,96,0.00,,,0.00,Wunderground v.1.15,2014-07-25 06:30:00,
2014-07-25 02:35:00,54.8,53.7,29.91,NNE,20,0.0,0.0,96,0.00,,,0.00,Wunderground v.1.15,2014-07-25 06:35:00,
2014-07-25 02:40:00,54.7,53.6,29.91,NNE,20,0.0,0.0,96,0.00,,,0.00,Wunderground v.1.15,2014-07-25 06:40:00,
2014-07-25 02:45:00,54.6,53.2,29.91,NNE,20,0.0,0.0,95,0.00,,,0.00,Wunderground v.1.15,2014-07-25 06:45:00,
2014-07-25 02:50:00,54.4,53.0,29.91,NNE,20,0.0,0.0,95,0.00,,,0.00,Wunderground v.1.15,2014-07-25 06:50:00,
2014-07-25 02:55:00,54.3,52.9,29.91,NNE,20,0.0,0.0,95,0.00,,,0.00,Wunderground v.1.15,2014-07-25 06:55:00,
2014-07-25 03:00:00,54.2,52.8,29.91,NNE,20,0.0,0.0,95,0.00,,,0.00,Wunderground v.1.15,2014-07-25 07:00:00,
2014-07-25 03:05:00,54.1,52.7,29.91,NNE,20,0.0,0.0,95,0.00,,,0.00,Wunderground v.1.15,2014-07-25 07:05:00,
2014-07-25 03:10:00,53.9,52.5,29.91,NNE,20,0.0,0.0,95,0.00,,,0.00,Wunderground v.1.15,2014-07-25 07:10:00,
2014-07-25 03:15:00,53.7,52.3,29.92,NNE,20,0.0,0.0,95,0.00,,,0.00,Wunderground v.1.15,2014-07-25 07:15:00,
2014-07-25 03:20:00,53.5,52.1,29.92,NNE,20,0.0,0.0,95,0.00,,,0.00,Wunderground v.1.15,2014-07-25 07:20:00,
2014-07-25 03:25:00,53.3,51.9,29.91,NNE,20,0.0,0.0,95,0.00,,,0.00,Wunderground v.1.15,2014-07-25 07:25:00,
2014-07-25 03:30:00,53.2,51.8,29.91,NNE,20,0.0,0.0,95,0.00,,,0.00,Wunderground v.1.15,2014-07-25 07:30:00,
2014-07-25 03:35:00,53.0,51.6,29.92,NNE,20,0.0,0.0,95,0.00,,,0.00,Wunderground v.1.15,2014-07-25 07:35:00,
2014-07-25 03:40:00,52.9,51.5,29.92,NNE,20,0.0,0.0,95,0.00,,,0.00,Wunderground v.1.15,2014-07-25 07:40:00,
2014-07-25 03:45:00,52.8,51.4,29.92,NNE,20,0.0,0.0,95,0.00,,,0.00,Wunderground v.1.15,2014-07-25 07:45:00,
2014-07-25 03:50:00,52.7,51.3,29.91,NNE,20,0.0,0.0,95,0.00,,,0.00,Wunderground v.1.15,2014-07-25 07:50:00,
2014-07-25 03:55:00,52.5,51.1,29.91,NNE,20,0.0,0.0,95,0.00,,,0.00,Wunderground v.1.15,2014-07-25 07:55:00,
2014-07-25 04:00:00,52.3,50.9,29.91,NNE,20,0.0,0.0,95,0.00,,,0.00,Wunderground v.1.15,2014-07-25 08:00:00,
2014-07-25 04:05:00,52.1,50.7,29.91,NNE,20,0.0,0.0,95,0.00,,,0.00,Wunderground v.1.15,2014-07-25 08:05:00,
2014-07-25 04:10:00,51.9,50.5,29.91,NNE,20,0.0,0.0,95,0.00,,,0.00,Wunderground v.1.15,2014-07-25 08:10:00,
2014-07-25 04:15:00,51.8,50.4,29.91,NNE,20,0.0,0.0,95,0.00,,,0.00,Wunderground v.1.15,2014-07-25 08:15:00,
2014-07-25 04:20:00,51.8,50.7,29.91,NNE,20,0.0,0.0,96,0.00,,,0.00,Wunderground v.1.15,2014-07-25 08:20:00,
2014-07-25 04:25:00,51.7,50.6,29.91,NNE,20,0.0,0.0,96,0.00,,,0.00,Wunderground v.1.15,2014-07-25 08:25:00,
2014-07-25 04:30:00,51.6,50.5,29.91,NNE,20,0.0,0.0,96,0.00,,,0.00,Wunderground v.1.15,2014-07-25 08:30:00,
2014-07-25 04:35:00,51.5,50.4,29.91,NNE,20,0.0,0.0,96,0.00,,,0.00,Wunderground v.1.15,2014-07-25 08:35:00,
2014-07-25 04:40:00,51.4,50.3,29.91,NNE,20,0.0,0.0,96,0.00,,,0.00,Wunderground v.1.15,2014-07-25 08:40:00,
2014-07-25 04:45:00,51.3,50.2,29.91,NNE,20,0.0,0.0,96,0.00,,,0.00,Wunderground v.1.15,2014-07-25 08:45:00,
2014-07-25 04:50:00,51.3,50.2,29.91,NNE,20,0.0,0.0,96,0.00,,,0.00,Wunderground v.1.15,2014-07-25 08:50:00,
2014-07-25 04:55:00,51.1,50.0,29.92,NNE,20,0.0,0.0,96,0.00,,,0.00,Wunderground v.1.15,2014-07-25 08:55:00,
2014-07-25 05:00:00,50.9,49.8,29.92,NNE,20,1.0,1.0,96,0.00,,,0.00,Wunderground v.1.15,2014-07-25 09:00:00,
2014-07-25 05:05:00,50.6,49.5,29.92,NNE,20,0.0,1.0,96,0.00,,,0.00,Wunderground v.1.15,2014-07-25 09:05:00,
2014-07-25 05:11:00,50.6,49.5,29.92,NNE,20,0.0,0.0,96,0.00,,,0.00,Wunderground v.1.15,2014-07-25 09:11:00,
2014-07-25 05:16:00,50.5,49.4,29.92,NNE,20,0.0,0.0,96,0.00,,,0.00,Wunderground v.1.15,2014-07-25 09:16:00,
2014-07-25 05:21:00,50.5,49.4,29.92,NNE,20,0.0,0.0,96,0.00,,,0.00,Wunderground v.1.15,2014-07-25 09:21:00,
2014-07-25 05:26:00,50.4,49.3,29.92,NNE,20,0.0,0.0,96,0.00,,,0.00,Wunderground v.1.15,2014-07-25 09:26:00,
2014-07-25 05:31:00,50.3,49.2,29.92,NNE,20,0.0,0.0,96,0.00,,,0.00,Wunderground v.1.15,2014-07-25 09:31:00,
2014-07-25 05:36:00,50.3,49.2,29.92,NNE,20,0.0,0.0,96,0.00,,,0.00,Wunderground v.1.15,2014-07-25 09:36:00,
2014-07-25 05:41:00,50.3,49.2,29.92,NNE,20,0.0,0.0,96,0.00,,,0.00,Wunderground v.1.15,2014-07-25 09:41:00,
2014-07-25 05:46:00,50.2,49.1,29.92,NNE,20,0.0,0.0,96,0.00,,,0.00,Wunderground v.1.15,2014-07-25 09:46:00,
2014-07-25 05:51:00,50.2,49.1,29.92,NNE,20,0.0,0.0,96,0.00,,,0.00,Wunderground v.1.15,2014-07-25 09:51:00,
2014-07-25 05:56:00,50.2,49.4,29.92,NNE,20,0.0,0.0,97,0.00,,,0.00,Wunderground v.1.15,2014-07-25 09:56:00,
2014-07-25 06:01:00,50.3,49.5,29.92,NNE,20,0.0,0.0,97,0.00,,,0.00,Wunderground v.1.15,2014-07-25 10:01:00,
2014-07-25 06:06:00,50.3,49.5,29.92,NNE,20,0.0,0.0,97,0.00,,,0.00,Wunderground v.1.15,2014-07-25 10:06:00,
2014-07-25 06:11:00,50.4,49.6,29.93,NNE,20,0.0,0.0,97,0.00,,,0.00,Wunderground v.1.15,2014-07-25 10:11:00,
2014-07-25 06:16:00,50.4,49.6,29.93,NNE,20,0.0,0.0,97,0.00,,,0.00,Wunderground v.1.15,2014-07-25 10:16:00,
2014-07-25 06:21:00,50.5,49.7,29.93,NNE,20,0.0,0.0,97,0.00,,,0.00,Wunderground v.1.15,2014-07-25 10:21:00,
2014-07-25 06:26:00,50.6,49.8,29.93,NNE,20,0.0,0.0,97,0.00,,,0.00,Wunderground v.1.15,2014-07-25 10:26:00,
2014-07-25 06:31:00,50.7,49.9,29.93,NNE,20,0.0,0.0,97,0.00,,,0.00,Wunderground v.1.15,2014-07-25 10:31:00,
2014-07-25 06:36:00,50.9,50.1,29.93,NNE,20,0.0,0.0,97,0.00,,,0.00,Wunderground v.1.15,2014-07-25 10:36:00,
2014-07-25 06:41:00,51.2,50.7,29.93,NNE,20,0.0,0.0,98,0.00,,,0.00,Wunderground v.1.15,2014-07-25 10:41:00,
2014-07-25 06:46:00,51.5,51.0,29.93,NNE,20,0.0,0.0,98,0.00,,,0.00,Wunderground v.1.15,2014-07-25 10:46:00,
2014-07-25 06:51:00,51.7,51.2,29.93,NNE,20,0.0,0.0,98,0.00,,,0.00,Wunderground v.1.15,2014-07-25 10:51:00,
2014-07-25 06:56:00,52.2,51.7,29.93,NNE,20,0.0,0.0,98,0.00,,,0.00,Wunderground v.1.15,2014-07-25 10:56:00,
2014-07-25 07:01:00,52.8,52.3,29.93,NNE,20,0.0,0.0,98,0.00,,,0.00,Wunderground v.1.15,2014-07-25 11:01:00,
2014-07-25 07:06:00,53.2,52.7,29.93,NNE,20,0.0,0.0,98,0.00,,,0.00,Wunderground v.1.15,2014-07-25 11:06:00,
2014-07-25 07:11:00,53.5,52.9,29.93,NNE,20,0.0,0.0,98,0.00,,,0.00,Wunderground v.1.15,2014-07-25 11:11:00,
2014-07-25 07:16:00,54.1,53.5,29.94,NNE,20,0.0,0.0,98,0.00,,,0.00,Wunderground v.1.15,2014-07-25 11:16:00,
2014-07-25 07:21:00,54.6,54.3,29.94,NNE,20,0.0,1.0,99,0.00,,,0.00,Wunderground v.1.15,2014-07-25 11:21:00,
2014-07-25 07:26:00,55.2,54.9,29.94,NNE,20,0.0,2.0,99,0.00,,,0.00,Wunderground v.1.15,2014-07-25 11:26:00,
2014-07-25 07:31:00,55.8,55.5,29.94,NNE,20,2.0,2.0,99,0.00,,,0.00,Wunderground v.1.15,2014-07-25 11:31:00,
2014-07-25 07:36:00,56.4,56.1,29.94,NNE,20,0.0,2.0,99,0.00,,,0.00,Wunderground v.1.15,2014-07-25 11:36:00,
2014-07-25 07:41:00,57.1,56.8,29.94,NNE,20,0.0,0.0,99,0.00,,,0.00,Wunderground v.1.15,2014-07-25 11:41:00,
2014-07-25 07:46:00,57.6,57.3,29.94,NNE,20,0.0,0.0,99,0.00,,,0.00,Wunderground v.1.15,2014-07-25 11:46:00,
2014-07-25 07:51:00,58.1,57.8,29.94,NNE,20,0.0,0.0,99,0.00,,,0.00,Wunderground v.1.15,2014-07-25 11:51:00,
2014-07-25 07:56:00,59.1,58.8,29.94,NNE,20,0.0,0.0,99,0.00,,,0.00,Wunderground v.1.15,2014-07-25 11:56:00,
2014-07-25 08:01:00,59.7,59.4,29.94,NNE,20,0.0,0.0,99,0.00,,,0.00,Wunderground v.1.15,2014-07-25 12:01:00,
2014-07-25 08:06:00,60.2,59.9,29.93,NNE,20,0.0,1.0,99,0.00,,,0.00,Wunderground v.1.15,2014-07-25 12:06:00,
2014-07-25 08:11:00,60.6,60.3,29.93,NNE,20,0.0,1.0,99,0.00,,,0.00,Wunderground v.1.15,2014-07-25 12:11:00,
2014-07-25 08:16:00,60.9,60.6,29.94,NNE,24,0.0,1.0,99,0.00,,,0.00,Wunderground v.1.15,2014-07-25 12:16:00,
2014-07-25 08:21:00,61.4,61.1,29.94,NNE,24,0.0,0.0,99,0.00,,,0.00,Wunderground v.1.15,2014-07-25 12:21:00,
2014-07-25 08:26:00,61.9,61.6,29.94,NE,43,0.0,2.0,99,0.00,,,0.00,Wunderground v.1.15,2014-07-25 12:26:00,
2014-07-25 08:32:00,62.5,62.2,29.94,NE,43,0.0,0.0,99,0.00,,,0.00,Wunderground v.1.15,2014-07-25 12:32:00,
2014-07-25 08:37:00,63.1,62.5,29.93,NE,43,0.0,1.0,98,0.00,,,0.00,Wunderground v.1.15,2014-07-25 12:37:00,
2014-07-25 08:42:00,63.5,62.0,29.94,NE,43,0.0,1.0,95,0.00,,,0.00,Wunderground v.1.15,2014-07-25 12:42:00,
2014-07-25 08:47:00,64.2,61.8,29.94,NE,40,0.0,2.0,92,0.00,,,0.00,Wunderground v.1.15,2014-07-25 12:47:00,
2014-07-25 08:52:00,65.0,61.0,29.94,West,270,0.0,2.0,87,0.00,,,0.00,Wunderground v.1.15,2014-07-25 12:52:00,
2014-07-25 08:57:00,65.9,60.9,29.94,West,270,1.0,2.0,84,0.00,,,0.00,Wunderground v.1.15,2014-07-25 12:57:00,
2014-07-25 09:02:00,67.1,62.4,29.94,West,270,0.0,1.0,85,0.00,,,0.00,Wunderground v.1.15,2014-07-25 13:02:00,
2014-07-25 09:07:00,68.0,61.9,29.94,East,96,1.0,3.0,81,0.00,,,0.00,Wunderground v.1.15,2014-07-25 13:07:00,
2014-07-25 09:12:00,68.8,61.7,29.94,NNW,339,0.0,4.0,78,0.00,,,0.00,Wunderground v.1.15,2014-07-25 13:12:00,
2014-07-25 09:17:00,69.5,61.2,29.94,WNW,302,1.0,6.0,75,0.00,,,0.00,Wunderground v.1.15,2014-07-25 13:17:00,
2014-07-25 09:22:00,70.2,60.0,29.94,WNW,300,1.0,5.0,70,0.00,,,0.00,Wunderground v.1.15,2014-07-25 13:22:00,
2014-07-25 09:27:00,70.8,60.9,29.94,WNW,301,1.0,5.0,71,0.00,,,0.00,Wunderground v.1.15,2014-07-25 13:27:00,
2014-07-25 09:32:00,71.5,62.0,29.94,NNW,332,2.0,4.0,72,0.00,,,0.00,Wunderground v.1.15,2014-07-25 13:32:00,
2014-07-25 09:37:00,72.0,61.7,29.94,North,360,2.0,5.0,70,0.00,,,0.00,Wunderground v.1.15,2014-07-25 13:37:00,
2014-07-25 09:42:00,72.4,62.1,29.93,NNE,20,1.0,4.0,70,0.00,,,0.00,Wunderground v.1.15,2014-07-25 13:42:00,
2014-07-25 09:47:00,72.8,61.6,29.94,NNW,328,0.0,4.0,68,0.00,,,0.00,Wunderground v.1.15,2014-07-25 13:47:00,
2014-07-25 09:52:00,73.4,61.3,29.93,NE,53,1.0,2.0,66,0.00,,,0.00,Wunderground v.1.15,2014-07-25 13:52:00,
2014-07-25 09:57:00,74.0,62.3,29.94,North,350,0.0,4.0,67,0.00,,,0.00,Wunderground v.1.15,2014-07-25 13:57:00,
2014-07-25 10:02:00,74.6,62.9,29.94,WSW,258,6.0,8.0,67,0.00,,,0.00,Wunderground v.1.15,2014-07-25 14:02:00,
2014-07-25 10:07:00,75.0,61.5,29.94,WSW,250,3.0,8.0,63,0.00,,,0.00,Wunderground v.1.15,2014-07-25 14:07:00,
2014-07-25 10:12:00,75.1,61.6,29.94,WSW,244,5.0,8.0,63,0.00,,,0.00,Wunderground v.1.15,2014-07-25 14:12:00,
2014-07-25 10:18:00,74.8,61.4,29.94,West,265,6.0,8.0,63,0.00,,,0.00,Wunderground v.1.15,2014-07-25 14:18:00,
2014-07-25 10:23:00,74.8,60.9,29.94,West,269,6.0,10.0,62,0.00,,,0.00,Wunderground v.1.15,2014-07-25 14:23:00,
2014-07-25 10:28:00,74.7,60.4,29.94,WSW,257,4.0,10.0,61,0.00,,,0.00,Wunderground v.1.15,2014-07-25 14:28:00,
2014-07-25 10:33:00,74.9,59.6,29.94,West,272,4.0,6.0,59,0.00,,,0.00,Wunderground v.1.15,2014-07-25 14:33:00,
2014-07-25 10:38:00,75.1,59.8,29.94,WNW,284,2.0,7.0,59,0.00,,,0.00,Wunderground v.1.15,2014-07-25 14:38:00,
2014-07-25 10:43:00,75.6,62.6,29.94,WNW,300,2.0,8.0,64,0.00,,,0.00,Wunderground v.1.15,2014-07-25 14:43:00,
2014-07-25 10:48:00,76.1,60.2,29.94,WNW,284,2.0,10.0,58,0.00,,,0.00,Wunderground v.1.15,2014-07-25 14:48:00,
2014-07-25 10:53:00,76.3,59.4,29.94,West,274,5.0,7.0,56,0.00,,,0.00,Wunderground v.1.15,2014-07-25 14:53:00,
2014-07-25 10:58:00,76.5,58.6,29.94,NW,306,2.0,9.0,54,0.00,,,0.00,Wunderground v.1.15,2014-07-25 14:58:00,
2014-07-25 11:03:00,76.8,62.8,29.94,WNW,296,5.0,11.0,62,0.00,,,0.00,Wunderground v.1.15,2014-07-25 15:03:00,
2014-07-25 11:08:00,77.0,60.1,29.94,WNW,290,0.0,11.0,56,0.00,,,0.00,Wunderground v.1.15,2014-07-25 15:08:00,
2014-07-25 11:13:00,77.3,60.9,29.94,WSW,249,2.0,8.0,57,0.00,,,0.00,Wunderground v.1.15,2014-07-25 15:13:00,
2014-07-25 11:18:00,77.5,60.6,29.94,WNW,302,5.0,10.0,56,0.00,,,0.00,Wunderground v.1.15,2014-07-25 15:18:00,
2014-07-25 11:23:00,77.6,61.2,29.93,WSW,240,3.0,7.0,57,0.00,,,0.00,Wunderground v.1.15,2014-07-25 15:23:00,
2014-07-25 11:28:00,77.8,60.8,29.93,WSW,252,4.0,10.0,56,0.00,,,0.00,Wunderground v.1.15,2014-07-25 15:28:00,
2014-07-25 11:33:00,77.8,60.3,29.93,West,263,4.0,8.0,55,0.00,,,0.00,Wunderground v.1.15,2014-07-25 15:33:00,
2014-07-25 11:38:00,77.9,60.9,29.93,WSW,253,8.0,14.0,56,0.00,,,0.00,Wunderground v.1.15,2014-07-25 15:38:00,
2014-07-25 11:43:00,78.1,60.1,29.93,West,279,7.0,8.0,54,0.00,,,0.00,Wunderground v.1.15,2014-07-25 15:43:00,
2014-07-25 11:48:00,78.3,59.2,29.93,West,278,5.0,10.0,52,0.00,,,0.00,Wunderground v.1.15,2014-07-25 15:48:00,
2014-07-25 11:53:00,78.5,58.9,29.93,WSW,247,4.0,6.0,51,0.00,,,0.00,Wunderground v.1.15,2014-07-25 15:53:00,
2014-07-25 11:58:00,78.6,60.6,29.92,SSW,208,3.0,10.0,54,0.00,,,0.00,Wunderground v.1.15,2014-07-25 15:58:00,
2014-07-25 12:03:00,78.8,61.8,29.92,WNW,299,4.0,8.0,56,0.00,,,0.00,Wunderground v.1.15,2014-07-25 16:03:00,
2014-07-25 12:08:00,78.9,60.3,29.92,WSW,252,4.0,8.0,53,0.00,,,0.00,Wunderground v.1.15,2014-07-25 16:08:00,
2014-07-25 12:13:00,78.9,58.1,29.92,NW,304,4.0,8.0,49,0.00,,,0.00,Wunderground v.1.15,2014-07-25 16:13:00,
2014-07-25 12:18:00,78.9,59.8,29.92,West,259,7.0,8.0,52,0.00,,,0.00,Wunderground v.1.15,2014-07-25 16:18:00,
2014-07-25 12:23:00,79.1,60.0,29.92,WSW,243,5.0,8.0,52,0.00,,,0.00,Wunderground v.1.15,2014-07-25 16:23:00,
2014-07-25 12:28:00,79.2,62.1,29.92,NNW,327,6.0,11.0,56,0.00,,,0.00,Wunderground v.1.15,2014-07-25 16:28:00,
2014-07-25 12:33:00,79.3,59.6,29.92,NW,322,1.0,5.0,51,0.00,,,0.00,Wunderground v.1.15,2014-07-25 16:33:00,
2014-07-25 12:38:00,79.3,61.2,29.91,NE,56,0.0,6.0,54,0.00,,,0.00,Wunderground v.1.15,2014-07-25 16:38:00,
2014-07-25 12:43:00,79.6,62.0,29.91,NNW,336,2.0,4.0,55,0.00,,,0.00,Wunderground v.1.15,2014-07-25 16:43:00,
2014-07-25 12:48:00,79.5,60.9,29.91,ESE,121,4.0,6.0,53,0.00,,,0.00,Wunderground v.1.15,2014-07-25 16:48:00,
2014-07-25 12:53:00,79.2,62.7,29.90,ESE,105,0.0,4.0,57,0.00,,,0.00,Wunderground v.1.15,2014-07-25 16:53:00,
2014-07-25 12:58:00,79.7,62.6,29.90,NNW,338,2.0,4.0,56,0.00,,,0.00,Wunderground v.1.15,2014-07-25 16:58:00,
2014-07-25 13:03:00,79.6,59.9,29.90,NW,313,2.0,9.0,51,0.00,,,0.00,Wunderground v.1.15,2014-07-25 17:03:00,
2014-07-25 13:08:00,79.6,58.8,29.90,NW,320,0.0,9.0,49,0.00,,,0.00,Wunderground v.1.15,2014-07-25 17:08:00,
2014-07-25 13:13:00,80.1,60.3,29.89,NW,314,1.0,5.0,51,0.00,,,0.00,Wunderground v.1.15,2014-07-25 17:13:00,
2014-07-25 13:18:00,80.2,61.5,29.89,WNW,292,0.0,6.0,53,0.00,,,0.00,Wunderground v.1.15,2014-07-25 17:18:00,
2014-07-25 13:23:00,80.4,62.2,29.90,NNW,327,2.0,4.0,54,0.00,,,0.00,Wunderground v.1.15,2014-07-25 17:23:00,
2014-07-25 13:28:00,80.7,60.3,29.89,SW,217,0.0,11.0,50,0.00,,,0.00,Wunderground v.1.15,2014-07-25 17:28:00,
2014-07-25 13:33:00,80.7,59.2,29.90,NNW,333,0.0,5.0,48,0.00,,,0.00,Wunderground v.1.15,2014-07-25 17:33:00,
2014-07-25 13:38:00,80.8,60.4,29.89,WSW,242,2.0,5.0,50,0.00,,,0.00,Wunderground v.1.15,2014-07-25 17:38:00,
2014-07-25 13:43:00,80.9,59.9,29.90,SE,138,0.0,2.0,49,0.00,,,0.00,Wunderground v.1.15,2014-07-25 17:43:00,
2014-07-25 13:48:00,80.7,59.8,29.90,SSW,209,5.0,5.0,49,0.00,,,0.00,Wunderground v.1.15,2014-07-25 17:48:00,
2014-07-25 13:53:00,80.6,60.8,29.90,NW,324,2.0,8.0,51,0.00,,,0.00,Wunderground v.1.15,2014-07-25 17:53:00,
2014-07-25 13:58:00,80.6,60.8,29.89,NW,305,2.0,8.0,51,0.00,,,0.00,Wunderground v.1.15,2014-07-25 17:58:00,
2014-07-25 14:03:00,80.4,60.1,29.90,WSW,252,10.0,12.0,50,0.00,,,0.00,Wunderground v.1.15,2014-07-25 18:03:00,
2014-07-25 14:08:00,79.6,60.4,29.89,North,9,3.0,18.0,52,0.00,,,0.00,Wunderground v.1.15,2014-07-25 18:08:00,
2014-07-25 14:13:00,79.7,61.6,29.89,NW,323,0.0,8.0,54,0.00,,,0.00,Wunderground v.1.15,2014-07-25 18:13:00,
2014-07-25 14:18:00,79.8,61.7,29.89,North,351,2.0,8.0,54,0.00,,,0.00,Wunderground v.1.15,2014-07-25 18:18:00,
2014-07-25 14:23:00,79.8,65.6,29.89,ENE,59,4.0,6.0,62,0.00,,,0.00,Wunderground v.1.15,2014-07-25 18:23:00,
2014-07-25 14:28:00,80.0,61.9,29.89,NNE,22,1.0,6.0,54,0.00,,,0.00,Wunderground v.1.15,2014-07-25 18:28:00,
2014-07-25 14:33:00,80.2,66.0,29.89,ENE,59,1.0,4.0,62,0.00,,,0.00,Wunderground v.1.15,2014-07-25 18:33:00,
2014-07-25 14:38:00,80.7,60.9,29.89,NE,43,0.0,4.0,51,0.00,,,0.00,Wunderground v.1.15,2014-07-25 18:38:00,
2014-07-25 14:43:00,81.2,60.2,29.88,West,281,4.0,6.0,49,0.00,,,0.00,Wunderground v.1.15,2014-07-25 18:43:00,
2014-07-25 14:48:00,81.2,63.5,29.89,NW,306,2.0,6.0,55,0.00,,,0.00,Wunderground v.1.15,2014-07-25 18:48:00,